Terminal Aerodrome Forecast
Issued by NWS Goodland, KS

Home | Current Version | Previous Version | Text Only | Print | Product List | Glossary On
Versions: 1 2 3 4 5 6 7 8 9 10 11 12 13
000
FTUS43 KGLD 232325
TAFGLD
TAF
KGLD 232325Z 2400/2424 21008KT P6SM SCT250
     FM241600 34012G20KT P6SM SCT200
     FM242300 01013KT P6SM SCT140=

USA.gov is the U.S. government's official web portal to all federal, state and local government web resources and services.